<?xml version="1.0" encoding="UTF-8" standalone="no" ?>
<gpx xmlns="http://www.topografix.com/GPX/1/1" xmlns:xsi="http://www.w3.org/2001/XMLSchema-instance" xsi:schemaLocation="http://www.topografix.com/GPX/1/1 http://www.topografix.com/GPX/1/1/gpx.xsd" version="1.1" creator="VisuGPX - https://www.visugpx.com">
  <metadata>
    <name>boucles beaumont</name>
    <desc><![CDATA[boucles beaumont du périgord]]></desc>
  </metadata>
  <trk>
    <name><![CDATA[BBmt18]]></name>
    <trkseg>
      <trkpt lat="44.81065" lon="0.82418">
        <ele>153</ele>
        <time>2008-12-08T10:29:44Z</time>
      </trkpt>
      <trkpt lat="44.81065" lon="0.8239">
        <ele>154</ele>
        <time>2008-12-08T10:30:03Z</time>
      </trkpt>
      <trkpt lat="44.8105" lon="0.82375">
        <ele>160</ele>
        <time>2008-12-08T10:30:19Z</time>
      </trkpt>
      <trkpt lat="44.81033" lon="0.82365">
        <ele>165</ele>
        <time>2008-12-08T10:30:32Z</time>
      </trkpt>
      <trkpt lat="44.81018" lon="0.82348">
        <ele>158</ele>
        <time>2008-12-08T10:31:05Z</time>
      </trkpt>
      <trkpt lat="44.81028" lon="0.82323">
        <ele>164</ele>
        <time>2008-12-08T10:32:09Z</time>
      </trkpt>
      <trkpt lat="44.81035" lon="0.82295">
        <ele>163</ele>
        <time>2008-12-08T10:32:14Z</time>
      </trkpt>
      <trkpt lat="44.81045" lon="0.82273">
        <ele>161</ele>
        <time>2008-12-08T10:32:21Z</time>
      </trkpt>
      <trkpt lat="44.81053" lon="0.82245">
        <ele>161</ele>
        <time>2008-12-08T10:32:29Z</time>
      </trkpt>
      <trkpt lat="44.81063" lon="0.82215">
        <ele>157</ele>
        <time>2008-12-08T10:32:33Z</time>
      </trkpt>
      <trkpt lat="44.81068" lon="0.82188">
        <ele>156</ele>
        <time>2008-12-08T10:32:36Z</time>
      </trkpt>
      <trkpt lat="44.81068" lon="0.82155">
        <ele>154</ele>
        <time>2008-12-08T10:32:39Z</time>
      </trkpt>
      <trkpt lat="44.81063" lon="0.82123">
        <ele>152</ele>
        <time>2008-12-08T10:32:42Z</time>
      </trkpt>
      <trkpt lat="44.81058" lon="0.82085">
        <ele>151</ele>
        <time>2008-12-08T10:32:45Z</time>
      </trkpt>
      <trkpt lat="44.81055" lon="0.82048">
        <ele>150</ele>
        <time>2008-12-08T10:32:48Z</time>
      </trkpt>
      <trkpt lat="44.81058" lon="0.82015">
        <ele>150</ele>
        <time>2008-12-08T10:32:51Z</time>
      </trkpt>
      <trkpt lat="44.81058" lon="0.81983">
        <ele>150</ele>
        <time>2008-12-08T10:32:54Z</time>
      </trkpt>
      <trkpt lat="44.81063" lon="0.81948">
        <ele>147</ele>
        <time>2008-12-08T10:32:57Z</time>
      </trkpt>
      <trkpt lat="44.81068" lon="0.81918">
        <ele>147</ele>
        <time>2008-12-08T10:33:00Z</time>
      </trkpt>
      <trkpt lat="44.81078" lon="0.81888">
        <ele>147</ele>
        <time>2008-12-08T10:33:03Z</time>
      </trkpt>
      <trkpt lat="44.81093" lon="0.81858">
        <ele>148</ele>
        <time>2008-12-08T10:33:06Z</time>
      </trkpt>
      <trkpt lat="44.81108" lon="0.81835">
        <ele>147</ele>
        <time>2008-12-08T10:33:09Z</time>
      </trkpt>
      <trkpt lat="44.81103" lon="0.8181">
        <ele>150</ele>
        <time>2008-12-08T10:33:23Z</time>
      </trkpt>
      <trkpt lat="44.81113" lon="0.81788">
        <ele>160</ele>
        <time>2008-12-08T10:33:38Z</time>
      </trkpt>
      <trkpt lat="44.81123" lon="0.81765">
        <ele>166</ele>
        <time>2008-12-08T10:33:44Z</time>
      </trkpt>
      <trkpt lat="44.81133" lon="0.81743">
        <ele>171</ele>
        <time>2008-12-08T10:33:49Z</time>
      </trkpt>
      <trkpt lat="44.81145" lon="0.81715">
        <ele>172</ele>
        <time>2008-12-08T10:33:55Z</time>
      </trkpt>
      <trkpt lat="44.81153" lon="0.8169">
        <ele>173</ele>
        <time>2008-12-08T10:34:02Z</time>
      </trkpt>
      <trkpt lat="44.8116" lon="0.81663">
        <ele>177</ele>
        <time>2008-12-08T10:34:10Z</time>
      </trkpt>
      <trkpt lat="44.81168" lon="0.81638">
        <ele>175</ele>
        <time>2008-12-08T10:34:16Z</time>
      </trkpt>
      <trkpt lat="44.81173" lon="0.81605">
        <ele>176</ele>
        <time>2008-12-08T10:34:23Z</time>
      </trkpt>
      <trkpt lat="44.81175" lon="0.81575">
        <ele>181</ele>
        <time>2008-12-08T10:34:30Z</time>
      </trkpt>
      <trkpt lat="44.81185" lon="0.81553">
        <ele>173</ele>
        <time>2008-12-08T10:34:36Z</time>
      </trkpt>
      <trkpt lat="44.8119" lon="0.81528">
        <ele>177</ele>
        <time>2008-12-08T10:34:46Z</time>
      </trkpt>
      <trkpt lat="44.81195" lon="0.81503">
        <ele>175</ele>
        <time>2008-12-08T10:34:51Z</time>
      </trkpt>
      <trkpt lat="44.81195" lon="0.81473">
        <ele>174</ele>
        <time>2008-12-08T10:34:57Z</time>
      </trkpt>
      <trkpt lat="44.8119" lon="0.81445">
        <ele>175</ele>
        <time>2008-12-08T10:35:11Z</time>
      </trkpt>
      <trkpt lat="44.81173" lon="0.81428">
        <ele>177</ele>
        <time>2008-12-08T10:35:15Z</time>
      </trkpt>
      <trkpt lat="44.8117" lon="0.814">
        <ele>182</ele>
        <time>2008-12-08T10:35:30Z</time>
      </trkpt>
      <trkpt lat="44.8118" lon="0.81378">
        <ele>180</ele>
        <time>2008-12-08T10:35:37Z</time>
      </trkpt>
      <trkpt lat="44.81193" lon="0.81358">
        <ele>177</ele>
        <time>2008-12-08T10:35:47Z</time>
      </trkpt>
      <trkpt lat="44.81198" lon="0.81333">
        <ele>176</ele>
        <time>2008-12-08T10:36:04Z</time>
      </trkpt>
      <trkpt lat="44.81208" lon="0.81308">
        <ele>171</ele>
        <time>2008-12-08T10:36:13Z</time>
      </trkpt>
      <trkpt lat="44.8122" lon="0.81285">
        <ele>170</ele>
        <time>2008-12-08T10:36:16Z</time>
      </trkpt>
      <trkpt lat="44.81235" lon="0.81255">
        <ele>169</ele>
        <time>2008-12-08T10:36:19Z</time>
      </trkpt>
      <trkpt lat="44.81248" lon="0.81225">
        <ele>167</ele>
        <time>2008-12-08T10:36:22Z</time>
      </trkpt>
      <trkpt lat="44.8126" lon="0.81205">
        <ele>165</ele>
        <time>2008-12-08T10:36:24Z</time>
      </trkpt>
      <trkpt lat="44.8128" lon="0.8118">
        <ele>164</ele>
        <time>2008-12-08T10:36:27Z</time>
      </trkpt>
      <trkpt lat="44.81295" lon="0.81165">
        <ele>163</ele>
        <time>2008-12-08T10:36:29Z</time>
      </trkpt>
      <trkpt lat="44.8131" lon="0.81145">
        <ele>161</ele>
        <time>2008-12-08T10:36:32Z</time>
      </trkpt>
      <trkpt lat="44.8131" lon="0.81115">
        <ele>159</ele>
        <time>2008-12-08T10:36:37Z</time>
      </trkpt>
      <trkpt lat="44.81308" lon="0.81088">
        <ele>158</ele>
        <time>2008-12-08T10:36:41Z</time>
      </trkpt>
      <trkpt lat="44.81323" lon="0.81073">
        <ele>159</ele>
        <time>2008-12-08T10:36:46Z</time>
      </trkpt>
      <trkpt lat="44.8134" lon="0.8106">
        <ele>158</ele>
        <time>2008-12-08T10:36:51Z</time>
      </trkpt>
      <trkpt lat="44.81358" lon="0.81048">
        <ele>155</ele>
        <time>2008-12-08T10:36:55Z</time>
      </trkpt>
      <trkpt lat="44.81375" lon="0.81033">
        <ele>154</ele>
        <time>2008-12-08T10:36:59Z</time>
      </trkpt>
      <trkpt lat="44.8139" lon="0.8101">
        <ele>159</ele>
        <time>2008-12-08T10:37:05Z</time>
      </trkpt>
      <trkpt lat="44.814" lon="0.80983">
        <ele>162</ele>
        <time>2008-12-08T10:37:09Z</time>
      </trkpt>
      <trkpt lat="44.8141" lon="0.80953">
        <ele>167</ele>
        <time>2008-12-08T10:37:14Z</time>
      </trkpt>
      <trkpt lat="44.8142" lon="0.80928">
        <ele>169</ele>
        <time>2008-12-08T10:37:18Z</time>
      </trkpt>
      <trkpt lat="44.8143" lon="0.809">
        <ele>166</ele>
        <time>2008-12-08T10:37:22Z</time>
      </trkpt>
      <trkpt lat="44.8144" lon="0.80873">
        <ele>162</ele>
        <time>2008-12-08T10:37:26Z</time>
      </trkpt>
      <trkpt lat="44.8145" lon="0.80843">
        <ele>160</ele>
        <time>2008-12-08T10:37:31Z</time>
      </trkpt>
      <trkpt lat="44.81458" lon="0.80815">
        <ele>156</ele>
        <time>2008-12-08T10:37:35Z</time>
      </trkpt>
      <trkpt lat="44.81465" lon="0.80788">
        <ele>157</ele>
        <time>2008-12-08T10:37:39Z</time>
      </trkpt>
      <trkpt lat="44.8148" lon="0.80768">
        <ele>156</ele>
        <time>2008-12-08T10:37:43Z</time>
      </trkpt>
      <trkpt lat="44.81493" lon="0.80748">
        <ele>157</ele>
        <time>2008-12-08T10:37:46Z</time>
      </trkpt>
      <trkpt lat="44.81508" lon="0.8073">
        <ele>164</ele>
        <time>2008-12-08T10:37:49Z</time>
      </trkpt>
      <trkpt lat="44.81523" lon="0.80715">
        <ele>166</ele>
        <time>2008-12-08T10:37:52Z</time>
      </trkpt>
      <trkpt lat="44.8153" lon="0.8069">
        <ele>172</ele>
        <time>2008-12-08T10:38:09Z</time>
      </trkpt>
      <trkpt lat="44.81535" lon="0.80665">
        <ele>167</ele>
        <time>2008-12-08T10:38:15Z</time>
      </trkpt>
      <trkpt lat="44.8154" lon="0.8064">
        <ele>168</ele>
        <time>2008-12-08T10:38:20Z</time>
      </trkpt>
      <trkpt lat="44.81565" lon="0.80568">
        <ele>160</ele>
        <time>2009-06-18T16:43:36Z</time>
      </trkpt>
      <trkpt lat="44.81568" lon="0.80535">
        <ele>154</ele>
        <time>2009-06-18T16:43:36Z</time>
      </trkpt>
      <trkpt lat="44.81573" lon="0.80508">
        <ele>164</ele>
        <time>2009-06-18T16:43:36Z</time>
      </trkpt>
      <trkpt lat="44.81578" lon="0.80483">
        <ele>166</ele>
        <time>2009-06-18T16:43:36Z</time>
      </trkpt>
      <trkpt lat="44.81575" lon="0.80453">
        <ele>169</ele>
        <time>2009-06-18T16:43:36Z</time>
      </trkpt>
      <trkpt lat="44.81568" lon="0.80428">
        <ele>170</ele>
        <time>2009-06-18T16:43:36Z</time>
      </trkpt>
      <trkpt lat="44.8156" lon="0.80403">
        <ele>166</ele>
        <time>2009-06-18T16:43:36Z</time>
      </trkpt>
      <trkpt lat="44.8157" lon="0.8038">
        <ele>157</ele>
        <time>2009-06-18T16:43:36Z</time>
      </trkpt>
      <trkpt lat="44.81585" lon="0.80363">
        <ele>157</ele>
        <time>2009-06-18T16:43:36Z</time>
      </trkpt>
      <trkpt lat="44.816" lon="0.80348">
        <ele>155</ele>
        <time>2009-06-18T16:43:36Z</time>
      </trkpt>
      <trkpt lat="44.81613" lon="0.80328">
        <ele>163</ele>
        <time>2009-06-18T16:43:36Z</time>
      </trkpt>
      <trkpt lat="44.81625" lon="0.80305">
        <ele>168</ele>
        <time>2009-06-18T16:43:36Z</time>
      </trkpt>
      <trkpt lat="44.8163" lon="0.8028">
        <ele>160</ele>
        <time>2009-06-18T16:43:36Z</time>
      </trkpt>
      <trkpt lat="44.81633" lon="0.80253">
        <ele>161</ele>
        <time>2009-06-18T16:43:36Z</time>
      </trkpt>
      <trkpt lat="44.81635" lon="0.80225">
        <ele>160</ele>
        <time>2009-06-18T16:43:36Z</time>
      </trkpt>
      <trkpt lat="44.81633" lon="0.80198">
        <ele>156</ele>
        <time>2009-06-18T16:43:36Z</time>
      </trkpt>
      <trkpt lat="44.81635" lon="0.8017">
        <ele>156</ele>
        <time>2009-06-18T16:43:36Z</time>
      </trkpt>
      <trkpt lat="44.81638" lon="0.8014">
        <ele>156</ele>
        <time>2009-06-18T16:43:36Z</time>
      </trkpt>
      <trkpt lat="44.8164" lon="0.8011">
        <ele>159</ele>
        <time>2009-06-18T16:43:36Z</time>
      </trkpt>
      <trkpt lat="44.81643" lon="0.8008">
        <ele>163</ele>
        <time>2009-06-18T16:43:36Z</time>
      </trkpt>
      <trkpt lat="44.81645" lon="0.80053">
        <ele>165</ele>
        <time>2009-06-18T16:43:36Z</time>
      </trkpt>
      <trkpt lat="44.81648" lon="0.80023">
        <ele>168</ele>
        <time>2009-06-18T16:43:36Z</time>
      </trkpt>
      <trkpt lat="44.8165" lon="0.79995">
        <ele>168</ele>
        <time>2009-06-18T16:43:36Z</time>
      </trkpt>
      <trkpt lat="44.81655" lon="0.79968">
        <ele>166</ele>
        <time>2009-06-18T16:43:36Z</time>
      </trkpt>
    </trkseg>
  </trk>
</gpx>